Time;durP1;ratioP1;P1;durP2;ratioP2;P2;SDS_P1;SDS_P2;PMS_P1;PMS_P2;Temp;Humidity;BMP_temperature;BMP_pressure;BME280_temperature;BME280_humidity;BME280_pressure;Samples;Min_cycle;Max_cycle;Signal;HPM_P1;HPM_P2
2023/07/16 00:01:36;;;;;;;6.22;1.33;;;17.00;1.00;;;;;;5086304;28;20123;-63
2023/07/16 00:04:03;;;;;;;5.00;1.00;;;17.00;1.00;;;;;;5086461;28;20428;-62
2023/07/16 00:06:28;;;;;;;7.05;1.05;;;17.00;1.00;;;;;;5087107;28;20035;-62
2023/07/16 00:08:54;;;;;;;5.80;1.17;;;16.90;1.00;;;;;;5088068;28;20044;-63
2023/07/16 00:11:21;;;;;;;8.45;1.25;;;16.90;2.70;;;;;;5103486;28;20048;-62
2023/07/16 00:13:47;;;;;;;8.50;1.45;;;16.80;1.00;;;;;;5086529;28;20056;-62
2023/07/16 00:16:13;;;;;;;6.35;1.33;;;16.70;19.30;;;;;;5086785;28;20555;-62
2023/07/16 00:18:41;;;;;;;6.15;1.08;;;16.70;27.50;;;;;;5087024;28;20048;-62
2023/07/16 00:21:09;;;;;;;6.43;1.08;;;16.60;60.40;;;;;;5088041;28;20455;-62
2023/07/16 00:23:55;;;;;;;5.95;1.35;;;16.50;87.20;;;;;;5088006;28;20097;-62
2023/07/16 00:26:21;;;;;;;10.50;1.70;;;16.40;99.90;;;;;;5087067;28;20086;-62
2023/07/16 00:28:47;;;;;;;6.90;1.08;;;16.30;99.90;;;;;;5069883;28;20140;-62
2023/07/16 00:31:13;;;;;;;7.78;1.40;;;16.30;99.90;;;;;;5086375;28;20048;-62
2023/07/16 00:33:38;;;;;;;11.63;1.48;;;16.20;99.90;;;;;;5085990;28;20040;-61
2023/07/16 00:36:04;;;;;;;5.75;1.45;;;16.20;99.90;;;;;;5086995;28;20731;-62
2023/07/16 00:38:30;;;;;;;8.25;1.73;;;16.20;99.90;;;;;;5085885;28;20063;-62
2023/07/16 00:40:56;;;;;;;9.93;1.52;;;16.20;99.90;;;;;;5087562;28;20039;-62
2023/07/16 00:43:22;;;;;;;11.10;2.25;;;16.20;99.90;;;;;;5087403;28;20043;-61
2023/07/16 00:45:50;;;;;;;7.25;1.95;;;16.20;99.90;;;;;;5088257;28;20394;-61
2023/07/16 00:48:15;;;;;;;7.80;1.83;;;16.20;99.90;;;;;;5069996;28;20055;-62
2023/07/16 00:50:44;;;;;;;6.63;1.30;;;16.20;99.90;;;;;;5086189;28;20040;-62
2023/07/16 00:53:10;;;;;;;8.55;1.50;;;16.20;99.90;;;;;;5069515;28;20043;-62
2023/07/16 00:55:36;;;;;;;11.57;2.00;;;16.20;99.90;;;;;;5086546;28;20513;-62
2023/07/16 00:58:05;;;;;;;10.52;1.60;;;16.20;99.90;;;;;;5087315;28;20110;-62
2023/07/16 01:00:35;;;;;;;6.78;1.45;;;16.20;99.90;;;;;;5086133;28;20051;-62
2023/07/16 01:03:02;;;;;;;8.57;1.67;;;16.20;99.90;;;;;;5085979;28;20039;-62
2023/07/16 01:05:36;;;;;;;7.28;1.77;;;16.20;93.40;;;;;;5087186;28;20044;-63
2023/07/16 01:08:06;;;;;;;8.35;1.95;;;16.20;63.10;;;;;;5102880;28;20553;-62
2023/07/16 01:10:33;;;;;;;6.95;1.63;;;16.10;73.70;;;;;;5086918;28;20032;-63
2023/07/16 01:13:00;;;;;;;10.63;1.50;;;16.10;95.40;;;;;;5085867;28;20044;-63
2023/07/16 01:15:25;;;;;;;5.80;1.35;;;16.10;99.40;;;;;;5085912;28;20189;-62
2023/07/16 01:17:51;;;;;;;10.23;1.40;;;16.20;77.40;;;;;;5103303;28;20618;-62
2023/07/16 01:20:17;;;;;;;6.03;1.30;;;16.20;98.10;;;;;;5087655;28;20036;-62
2023/07/16 01:23:10;;;;;;;7.93;1.92;;;16.10;99.90;;;;;;5070906;28;20131;-63
2023/07/16 01:25:53;;;;;;;6.87;1.40;;;16.20;99.90;;;;;;5086209;28;20150;-62
2023/07/16 01:28:31;;;;;;;6.32;1.45;;;16.20;99.90;;;;;;5069599;28;20827;-62
2023/07/16 01:30:58;;;;;;;7.80;1.90;;;16.30;80.10;;;;;;5087495;28;20497;-62
2023/07/16 01:33:25;;;;;;;8.93;1.77;;;16.40;89.60;;;;;;5086674;28;20076;-62
2023/07/16 01:35:51;;;;;;;10.43;2.38;;;16.40;64.40;;;;;;5087406;28;20406;-62
2023/07/16 01:38:18;;;;;;;10.90;2.20;;;16.50;51.20;;;;;;5087265;28;20048;-62
2023/07/16 01:40:44;;;;;;;12.02;2.63;;;16.60;44.60;;;;;;5088213;28;20436;-63
2023/07/16 01:43:10;;;;;;;9.60;2.50;;;16.60;36.00;;;;;;5087221;28;20046;-62
2023/07/16 01:45:36;;;;;;;9.07;2.60;;;16.60;50.30;;;;;;5087033;28;20050;-62
2023/07/16 01:48:26;;;;;;;8.82;1.83;;;16.50;58.40;;;;;;5088186;28;20047;-62
2023/07/16 01:50:52;;;;;;;8.55;2.17;;;16.50;54.60;;;;;;5088051;28;20042;-62
2023/07/16 01:53:17;;;;;;;9.20;2.00;;;16.50;93.30;;;;;;5088477;28;20032;-62
2023/07/16 01:55:43;;;;;;;7.97;2.00;;;16.40;98.30;;;;;;5070914;28;20040;-61
2023/07/16 01:58:09;;;;;;;7.35;1.55;;;16.40;99.90;;;;;;5088076;28;20037;-62
2023/07/16 02:00:36;;;;;;;9.60;1.95;;;16.40;99.90;;;;;;5087000;28;20056;-62
2023/07/16 02:03:02;;;;;;;9.25;2.33;;;16.40;99.90;;;;;;5087614;28;20040;-62
2023/07/16 02:05:28;;;;;;;6.70;1.35;;;16.30;99.90;;;;;;5088752;28;20046;-63
2023/07/16 02:08:13;;;;;;;9.98;2.00;;;16.20;99.90;;;;;;5086724;28;20115;-62
2023/07/16 02:10:39;;;;;;;8.80;1.50;;;16.20;99.90;;;;;;5086533;28;20055;-62
2023/07/16 02:13:05;;;;;;;13.40;1.80;;;16.20;99.90;;;;;;5069750;28;20051;-62
2023/07/16 02:15:30;;;;;;;6.45;1.50;;;16.10;99.90;;;;;;5086725;28;20422;-62
2023/07/16 02:17:56;;;;;;;8.57;1.60;;;16.00;99.90;;;;;;5104035;28;20036;-62
2023/07/16 02:20:22;;;;;;;6.85;1.55;;;16.00;99.90;;;;;;5086915;28;20044;-62
2023/07/16 02:22:48;;;;;;;10.05;1.52;;;15.90;99.90;;;;;;5087088;28;20375;-61
2023/07/16 02:25:13;;;;;;;9.52;1.75;;;15.80;99.90;;;;;;5087401;28;20128;-62
2023/07/16 02:27:39;;;;;;;8.63;1.65;;;15.80;99.90;;;;;;5090220;28;20440;-62
2023/07/16 02:30:06;;;;;;;5.53;1.65;;;15.70;99.90;;;;;;5090745;28;20052;-62
2023/07/16 02:32:33;;;;;;;6.47;1.42;;;15.80;99.90;;;;;;5092000;28;20387;-62
2023/07/16 02:34:58;;;;;;;9.10;1.88;;;15.70;99.90;;;;;;5073160;28;20036;-61
2023/07/16 02:37:24;;;;;;;8.68;1.40;;;15.70;99.90;;;;;;5106873;28;20040;-61
2023/07/16 02:39:49;;;;;;;6.93;1.45;;;15.80;99.90;;;;;;5091958;28;20081;-62
2023/07/16 02:42:15;;;;;;;8.82;1.98;;;15.90;99.90;;;;;;5073900;28;20040;-62
2023/07/16 02:44:44;;;;;;;8.15;2.03;;;15.90;99.90;;;;;;5090192;28;20048;-62
2023/07/16 02:47:11;;;;;;;7.05;1.70;;;15.90;99.90;;;;;;5092218;28;20040;-62
2023/07/16 02:49:38;;;;;;;13.02;1.90;;;15.90;99.90;;;;;;5091271;28;20497;-62
2023/07/16 02:52:04;;;;;;;6.82;2.00;;;15.90;99.90;;;;;;5091105;28;20044;-62
2023/07/16 02:54:29;;;;;;;7.10;1.55;;;15.90;99.90;;;;;;5091737;28;20477;-62
2023/07/16 02:56:55;;;;;;;8.65;2.00;;;15.90;99.90;;;;;;5086557;28;20591;-63
2023/07/16 02:59:21;;;;;;;9.77;1.88;;;15.90;99.90;;;;;;5080504;28;20041;-63
2023/07/16 03:01:46;;;;;;;7.25;2.22;;;15.90;99.90;;;;;;5082573;28;20039;-63
2023/07/16 03:04:12;;;;;;;7.07;2.35;;;15.90;99.90;;;;;;5080714;28;20044;-63
2023/07/16 03:06:38;;;;;;;8.55;2.40;;;15.90;99.90;;;;;;5063689;28;20080;-62
2023/07/16 03:09:03;;;;;;;12.05;2.80;;;15.90;99.90;;;;;;5063546;28;20118;-63
2023/07/16 03:11:29;;;;;;;8.93;2.45;;;15.90;99.90;;;;;;5081940;28;20039;-63
2023/07/16 03:13:55;;;;;;;8.57;2.88;;;16.00;99.90;;;;;;5080700;28;20135;-63
2023/07/16 03:16:20;;;;;;;11.82;2.80;;;16.00;99.90;;;;;;5080503;28;20086;-63
2023/07/16 03:18:46;;;;;;;9.10;2.45;;;16.00;99.90;;;;;;5081054;28;20044;-63
2023/07/16 03:21:13;;;;;;;9.85;2.70;;;16.00;99.90;;;;;;5081830;28;20044;-63
2023/07/16 03:23:38;;;;;;;9.70;2.88;;;16.10;99.90;;;;;;5080640;28;20429;-63
2023/07/16 03:26:04;;;;;;;7.07;2.63;;;16.10;99.90;;;;;;5080401;28;20039;-64
2023/07/16 03:28:30;;;;;;;9.50;2.88;;;16.10;99.90;;;;;;5063319;28;20098;-63
2023/07/16 03:30:55;;;;;;;9.40;3.45;;;16.10;99.90;;;;;;5080475;28;20044;-63
2023/07/16 03:33:21;;;;;;;10.90;3.08;;;16.20;99.90;;;;;;5063815;28;20048;-63
2023/07/16 03:35:48;;;;;;;8.82;2.72;;;16.20;99.90;;;;;;5063968;28;20051;-64
2023/07/16 03:38:15;;;;;;;9.25;2.78;;;16.20;99.90;;;;;;5079830;28;20354;-63
2023/07/16 03:40:45;;;;;;;7.72;2.55;;;16.20;99.90;;;;;;5080257;28;20246;-63
2023/07/16 03:43:11;;;;;;;9.38;2.72;;;16.20;99.90;;;;;;5063485;28;20521;-63
2023/07/16 03:45:37;;;;;;;8.77;3.35;;;16.20;99.90;;;;;;5080912;28;20044;-62
2023/07/16 03:48:02;;;;;;;8.48;2.90;;;16.30;99.90;;;;;;5063622;28;20436;-62
2023/07/16 03:50:28;;;;;;;10.20;3.35;;;16.30;99.90;;;;;;5097427;28;20048;-63
2023/07/16 03:52:54;;;;;;;9.27;2.83;;;16.30;99.90;;;;;;5080339;28;20048;-63
2023/07/16 03:55:20;;;;;;;10.73;2.97;;;16.30;99.90;;;;;;5063186;28;20032;-64
2023/07/16 03:57:45;;;;;;;7.90;2.80;;;16.30;99.90;;;;;;5063337;28;20467;-63
2023/07/16 04:00:11;;;;;;;9.38;3.15;;;16.30;99.90;;;;;;5079795;28;20317;-63
2023/07/16 04:02:37;;;;;;;9.70;3.10;;;16.40;99.90;;;;;;5063047;28;20036;-64
2023/07/16 04:05:03;;;;;;;8.73;2.55;;;16.40;99.90;;;;;;5062843;28;20134;-64
2023/07/16 04:07:29;;;;;;;8.50;2.80;;;16.40;99.90;;;;;;5096745;28;20429;-62
2023/07/16 04:09:54;;;;;;;9.00;3.20;;;16.40;99.90;;;;;;5062902;28;20048;-63
2023/07/16 04:12:20;;;;;;;10.52;2.97;;;16.40;99.90;;;;;;5062949;28;20040;-63
2023/07/16 04:14:47;;;;;;;10.07;3.30;;;16.40;99.90;;;;;;5063209;28;20044;-62
2023/07/16 04:17:13;;;;;;;8.80;3.22;;;16.40;99.90;;;;;;5079775;28;20513;-62
2023/07/16 04:19:39;;;;;;;11.07;3.20;;;16.40;99.90;;;;;;5079234;28;20047;-62
2023/07/16 04:22:05;;;;;;;10.88;3.28;;;16.40;99.90;;;;;;5080946;28;20102;-62
2023/07/16 04:24:31;;;;;;;8.35;2.85;;;16.40;99.90;;;;;;5062768;28;20067;-62
2023/07/16 04:26:58;;;;;;;5.97;2.80;;;16.40;99.90;;;;;;5062947;28;20036;-63
2023/07/16 04:29:24;;;;;;;10.00;3.60;;;16.40;99.90;;;;;;5045475;28;20312;-62
2023/07/16 04:31:50;;;;;;;7.95;3.13;;;16.50;99.90;;;;;;5079624;28;20292;-63
2023/07/16 04:34:16;;;;;;;11.55;3.25;;;16.50;99.90;;;;;;5079242;28;20590;-64
2023/07/16 04:36:45;;;;;;;6.95;3.20;;;16.60;99.90;;;;;;5079432;28;20517;-63
2023/07/16 04:39:10;;;;;;;9.57;3.50;;;16.60;99.90;;;;;;5061904;28;20486;-62
2023/07/16 04:41:36;;;;;;;9.95;3.42;;;16.60;99.90;;;;;;5062204;28;20083;-64
2023/07/16 04:44:02;;;;;;;11.75;3.33;;;16.60;99.90;;;;;;5062109;28;20588;-63
2023/07/16 04:46:30;;;;;;;8.25;2.92;;;16.70;99.90;;;;;;5085552;28;20490;-62
2023/07/16 04:48:55;;;;;;;10.02;3.40;;;16.70;99.90;;;;;;5086311;28;20055;-62
2023/07/16 04:51:21;;;;;;;9.55;3.58;;;16.80;90.20;;;;;;5087437;28;20035;-61
2023/07/16 04:53:47;;;;;;;9.77;3.40;;;16.80;97.60;;;;;;5070744;28;20044;-61
2023/07/16 04:56:13;;;;;;;9.00;3.30;;;16.80;97.80;;;;;;5087086;28;20047;-62
2023/07/16 04:58:39;;;;;;;11.52;3.75;;;16.90;91.60;;;;;;5104036;28;20044;-62
2023/07/16 05:01:05;;;;;;;8.23;3.70;;;16.90;87.30;;;;;;5071212;28;20062;-62
2023/07/16 05:03:31;;;;;;;9.25;3.33;;;16.90;99.90;;;;;;5086613;28;20075;-62
2023/07/16 05:05:58;;;;;;;8.73;3.72;;;17.00;94.10;;;;;;5069792;28;20085;-62
2023/07/16 05:08:24;;;;;;;13.25;3.95;;;17.00;82.20;;;;;;5069463;28;20354;-62
2023/07/16 05:10:49;;;;;;;8.75;3.40;;;17.00;61.60;;;;;;5082729;28;20239;-64
2023/07/16 05:13:15;;;;;;;10.18;3.35;;;17.10;53.40;;;;;;5044972;28;20043;-63
2023/07/16 05:15:43;;;;;;;11.40;4.10;;;17.10;92.10;;;;;;5045221;28;20139;-64
2023/07/16 05:18:09;;;;;;;8.65;3.35;;;17.20;90.70;;;;;;5061841;28;20044;-64
2023/07/16 05:20:35;;;;;;;11.50;3.60;;;17.30;51.70;;;;;;5061215;28;20105;-64
2023/07/16 05:23:01;;;;;;;9.07;3.97;;;17.30;47.60;;;;;;5078226;28;20032;-64
2023/07/16 05:25:26;;;;;;;8.52;3.72;;;17.40;29.10;;;;;;5077922;28;20052;-64
2023/07/16 05:27:52;;;;;;;8.68;3.88;;;17.40;51.70;;;;;;5061798;28;20072;-64
2023/07/16 05:30:18;;;;;;;10.02;3.78;;;17.50;74.80;;;;;;5078917;28;20113;-64
2023/07/16 05:32:44;;;;;;;11.20;3.47;;;17.60;64.90;;;;;;5078319;28;20122;-63
2023/07/16 05:35:10;;;;;;;11.55;3.45;;;17.80;19.80;;;;;;5078230;28;20048;-64
2023/07/16 05:37:35;;;;;;;10.32;3.50;;;18.10;1.00;;;;;;5061349;28;20050;-64
2023/07/16 05:40:02;;;;;;;8.80;3.47;;;18.30;1.00;;;;;;5077902;28;20052;-63
2023/07/16 05:42:28;;;;;;;9.50;3.03;;;18.40;1.00;;;;;;5045321;28;20044;-64
2023/07/16 05:44:54;;;;;;;10.30;2.67;;;18.50;1.00;;;;;;5078960;28;20248;-64
2023/07/16 05:47:20;;;;;;;11.38;3.15;;;18.60;1.00;;;;;;5078303;28;20474;-62
2023/07/16 05:49:45;;;;;;;8.55;2.85;;;18.60;1.00;;;;;;5078771;28;20051;-64
2023/07/16 05:52:11;;;;;;;11.43;3.28;;;18.60;1.00;;;;;;5077713;28;20734;-64
2023/07/16 05:54:37;;;;;;;8.52;2.80;;;18.80;99.90;;;;;;5061263;28;20051;-64
2023/07/16 05:57:03;;;;;;;9.45;2.80;;;18.80;99.90;;;;;;5078132;28;20130;-63
2023/07/16 05:59:29;;;;;;;7.32;2.90;;;18.90;99.90;;;;;;5078359;28;20394;-63
2023/07/16 06:01:57;;;;;;;7.07;2.42;;;19.30;99.90;;;;;;5081454;28;20040;-63
2023/07/16 06:04:23;;;;;;;7.60;2.70;;;19.30;99.90;;;;;;5065225;28;20321;-63
2023/07/16 06:06:48;;;;;;;7.43;2.38;;;19.00;99.90;;;;;;5081622;28;20127;-63
2023/07/16 06:09:14;;;;;;;9.63;2.75;;;18.60;99.90;;;;;;5064782;28;20166;-64
2023/07/16 06:11:40;;;;;;;7.55;2.53;;;18.60;99.90;;;;;;5081950;28;20055;-63
2023/07/16 06:14:05;;;;;;;9.85;2.80;;;18.70;99.90;;;;;;5048896;28;20202;-64
2023/07/16 06:16:31;;;;;;;9.55;2.78;;;18.80;99.90;;;;;;5065068;28;20092;-64
2023/07/16 06:18:57;;;;;;;9.55;2.30;;;18.90;99.90;;;;;;5083155;28;20314;-64
2023/07/16 06:21:22;;;;;;;11.80;2.83;;;19.10;99.90;;;;;;5064839;28;20036;-63
2023/07/16 06:23:48;;;;;;;8.27;2.33;;;19.30;99.90;;;;;;5090048;28;20052;-62
2023/07/16 06:26:14;;;;;;;5.70;1.70;;;19.30;99.90;;;;;;5089970;28;20055;-62
2023/07/16 06:28:40;;;;;;;8.77;2.30;;;19.50;99.90;;;;;;5057194;28;20052;-63
2023/07/16 06:31:05;;;;;;;8.38;2.08;;;19.60;99.90;;;;;;5090493;28;20142;-64
2023/07/16 06:33:31;;;;;;;6.03;1.63;;;19.70;99.90;;;;;;5091312;28;20478;-62
2023/07/16 06:35:57;;;;;;;6.63;2.45;;;19.70;99.90;;;;;;5072747;28;20040;-63
2023/07/16 06:38:22;;;;;;;6.78;2.08;;;19.60;99.90;;;;;;5089263;28;20365;-63
2023/07/16 06:40:49;;;;;;;8.05;2.58;;;19.60;99.90;;;;;;5072598;28;20055;-63
2023/07/16 06:43:16;;;;;;;8.15;1.95;;;19.50;99.90;;;;;;5089358;28;20040;-62
2023/07/16 06:45:42;;;;;;;5.38;2.25;;;19.30;99.90;;;;;;5089960;28;20044;-63
2023/07/16 06:48:07;;;;;;;8.55;2.80;;;19.20;99.90;;;;;;5072598;28;20063;-63
2023/07/16 06:50:33;;;;;;;10.48;2.60;;;19.10;99.90;;;;;;5089435;28;20036;-62
2023/07/16 06:52:59;;;;;;;7.07;2.35;;;19.00;99.90;;;;;;5072638;28;20373;-62
2023/07/16 06:55:24;;;;;;;10.30;3.28;;;18.90;99.90;;;;;;5091831;28;20055;-62
2023/07/16 06:57:50;;;;;;;9.77;2.60;;;18.80;99.90;;;;;;5072114;28;20427;-63
2023/07/16 07:00:16;;;;;;;8.55;2.65;;;18.70;99.90;;;;;;5089068;28;20043;-63
2023/07/16 07:02:42;;;;;;;9.45;3.03;;;18.60;99.90;;;;;;5089014;28;20130;-62
2023/07/16 07:05:08;;;;;;;10.13;2.70;;;18.70;99.90;;;;;;5089217;28;20036;-62
2023/07/16 07:07:33;;;;;;;9.75;2.90;;;18.80;99.90;;;;;;5071989;28;20039;-63
2023/07/16 07:09:59;;;;;;;8.43;2.80;;;18.90;99.90;;;;;;5089503;28;20044;-63
2023/07/16 07:12:25;;;;;;;9.07;2.72;;;19.10;99.90;;;;;;5071887;28;20161;-62
2023/07/16 07:14:50;;;;;;;8.20;2.10;;;19.50;99.90;;;;;;5088534;28;20594;-62
2023/07/16 07:17:16;;;;;;;9.52;2.78;;;19.50;99.90;;;;;;5070642;28;20109;-63
2023/07/16 07:19:43;;;;;;;6.03;2.20;;;19.60;99.90;;;;;;5071696;28;20047;-62
2023/07/16 07:22:08;;;;;;;7.70;2.90;;;19.80;99.90;;;;;;5072202;28;20444;-62
2023/07/16 07:24:34;;;;;;;5.22;2.20;;;20.00;99.90;;;;;;5088270;28;20040;-62
2023/07/16 07:27:00;;;;;;;7.03;2.67;;;20.40;99.90;;;;;;5088590;28;20043;-62
2023/07/16 07:29:26;;;;;;;8.63;3.00;;;20.40;99.90;;;;;;5088444;28;20044;-62
2023/07/16 07:31:53;;;;;;;10.57;2.72;;;20.50;99.90;;;;;;5088905;28;20096;-62
2023/07/16 07:34:19;;;;;;;10.18;2.92;;;20.60;99.90;;;;;;5067128;28;20185;-64
2023/07/16 07:36:46;;;;;;;8.43;2.78;;;20.40;99.90;;;;;;5063367;28;20241;-64
2023/07/16 07:39:13;;;;;;;7.93;2.35;;;20.60;82.60;;;;;;5079542;28;20472;-64
2023/07/16 07:41:39;;;;;;;6.07;2.50;;;20.70;78.60;;;;;;5063430;28;20505;-64
2023/07/16 07:44:05;;;;;;;7.88;2.75;;;20.70;70.90;;;;;;5063824;28;20089;-64
2023/07/16 07:46:30;;;;;;;10.07;3.10;;;20.40;94.90;;;;;;5080551;28;20455;-64
2023/07/16 07:48:56;;;;;;;7.03;2.47;;;20.50;99.90;;;;;;5046944;28;20052;-64
2023/07/16 07:51:22;;;;;;;8.93;2.90;;;20.90;99.90;;;;;;5063143;28;20563;-65
2023/07/16 07:53:49;;;;;;;7.00;2.78;;;20.90;99.90;;;;;;5081727;28;20115;-63
2023/07/16 07:56:14;;;;;;;5.30;2.30;;;20.60;83.10;;;;;;5097115;28;20036;-64
2023/07/16 07:58:40;;;;;;;7.05;3.00;;;20.30;99.90;;;;;;5079993;28;20113;-64
2023/07/16 08:01:07;;;;;;;8.13;2.78;;;20.00;99.90;;;;;;5080219;28;20397;-63
2023/07/16 08:03:35;;;;;;;8.45;3.03;;;19.70;99.90;;;;;;5096515;28;20040;-64
2023/07/16 08:06:01;;;;;;;10.20;2.80;;;19.60;99.90;;;;;;5080765;28;20048;-64
2023/07/16 08:08:26;;;;;;;9.38;2.90;;;19.70;99.90;;;;;;5062800;28;20492;-64
2023/07/16 08:10:53;;;;;;;8.30;2.90;;;20.00;99.90;;;;;;5079937;28;20683;-63
2023/07/16 08:13:19;;;;;;;10.15;4.05;;;20.10;99.90;;;;;;5096445;28;20036;-64
2023/07/16 08:15:44;;;;;;;8.95;2.70;;;20.20;91.80;;;;;;5063741;28;20135;-64
2023/07/16 08:18:10;;;;;;;5.45;2.47;;;20.10;95.30;;;;;;5062790;28;20039;-64
2023/07/16 08:20:36;;;;;;;6.25;2.70;;;19.90;96.30;;;;;;5062632;28;20131;-64
2023/07/16 08:23:02;;;;;;;5.88;2.50;;;19.80;99.90;;;;;;5061610;28;20048;-64
2023/07/16 08:25:28;;;;;;;5.45;2.80;;;19.80;87.20;;;;;;5080952;28;20042;-64
2023/07/16 08:27:54;;;;;;;10.68;3.40;;;19.90;99.90;;;;;;5063654;28;20054;-65
2023/07/16 08:30:20;;;;;;;8.73;3.05;;;20.00;99.90;;;;;;5030073;28;20048;-65
2023/07/16 08:32:45;;;;;;;8.20;2.65;;;20.60;92.60;;;;;;5096457;28;20036;-64
2023/07/16 08:35:17;;;;;;;5.88;2.80;;;21.30;1.00;;;;;;5079138;28;20480;-64
2023/07/16 08:37:43;;;;;;;7.13;3.10;;;21.50;1.00;;;;;;5096339;28;20086;-65
2023/07/16 08:40:11;;;;;;;6.97;2.97;;;21.40;1.00;;;;;;5062257;28;20533;-63
2023/07/16 08:42:40;;;;;;;8.27;2.58;;;21.40;1.00;;;;;;5080008;28;20337;-65
2023/07/16 08:45:14;;;;;;;6.53;2.63;;;21.40;99.90;;;;;;5096887;28;20359;-63
2023/07/16 08:47:39;;;;;;;5.72;2.83;;;20.90;1.00;;;;;;5061973;28;20048;-64
2023/07/16 08:50:06;;;;;;;8.07;2.72;;;20.60;1.00;;;;;;5079195;28;20051;-64
2023/07/16 08:52:31;;;;;;;6.25;2.72;;;19.80;99.90;;;;;;5062055;28;20044;-64
2023/07/16 08:54:57;;;;;;;9.50;3.13;;;19.60;99.90;;;;;;5079340;28;20052;-64
2023/07/16 08:57:23;;;;;;;7.45;3.08;;;19.30;99.90;;;;;;5079273;28;20537;-64
2023/07/16 08:59:50;;;;;;;8.45;3.30;;;19.40;99.90;;;;;;5095529;28;20043;-64
2023/07/16 09:02:20;;;;;;;8.52;2.95;;;19.40;99.90;;;;;;5062215;28;20046;-65
2023/07/16 09:04:47;;;;;;;8.55;3.38;;;19.30;99.90;;;;;;5095552;28;20047;-64
2023/07/16 09:07:13;;;;;;;9.93;3.22;;;19.50;99.90;;;;;;5078744;28;20035;-64
2023/07/16 09:09:39;;;;;;;7.40;3.15;;;20.00;99.90;;;;;;5062558;28;20302;-63
2023/07/16 09:12:05;;;;;;;8.98;3.42;;;20.20;99.90;;;;;;5078627;28;20162;-64
2023/07/16 09:14:31;;;;;;;6.53;2.80;;;20.60;99.90;;;;;;5078563;28;20134;-64
2023/07/16 09:16:56;;;;;;;9.02;3.40;;;21.00;99.90;;;;;;5061964;28;20073;-64
2023/07/16 09:19:25;;;;;;;6.90;2.72;;;21.40;99.90;;;;;;5078285;28;20085;-63
2023/07/16 09:21:51;;;;;;;7.70;3.28;;;21.80;1.00;;;;;;5095228;28;20047;-64
2023/07/16 09:24:19;;;;;;;5.75;2.75;;;22.20;1.00;;;;;;5061848;28;20128;-63
2023/07/16 09:26:52;;;;;;;6.05;2.70;;;22.30;99.90;;;;;;5095434;28;20135;-64
2023/07/16 09:29:18;;;;;;;5.45;2.05;;;22.70;99.90;;;;;;5094914;28;20204;-64
2023/07/16 09:31:55;;;;;;;7.70;2.90;;;22.60;99.90;;;;;;5078406;28;20055;-65
2023/07/16 09:34:21;;;;;;;6.32;3.00;;;22.30;99.90;;;;;;5078168;28;20063;-64
2023/07/16 09:36:49;;;;;;;8.95;2.40;;;22.10;99.90;;;;;;5078658;28;20608;-64
2023/07/16 09:39:18;;;;;;;7.50;2.75;;;22.20;99.90;;;;;;5077522;28;20057;-64
2023/07/16 09:41:44;;;;;;;6.65;2.50;;;22.40;99.90;;;;;;5079094;28;20036;-64
2023/07/16 09:44:11;;;;;;;5.93;2.40;;;22.50;99.90;;;;;;5078074;28;20100;-65
2023/07/16 09:46:37;;;;;;;7.03;2.47;;;22.60;99.90;;;;;;5078401;28;20036;-64
2023/07/16 09:49:02;;;;;;;5.55;2.45;;;22.60;99.90;;;;;;5078614;28;20101;-64
2023/07/16 09:51:32;;;;;;;5.65;2.22;;;22.30;99.90;;;;;;5079580;28;20455;-64
2023/07/16 09:54:01;;;;;;;7.93;2.30;;;22.20;99.90;;;;;;5078217;28;20040;-65
2023/07/16 09:56:37;;;;;;;8.13;2.35;;;21.90;99.90;;;;;;5061248;28;20261;-65
2023/07/16 09:59:09;;;;;;;5.63;2.20;;;21.90;99.90;;;;;;5094911;28;20044;-64
2023/07/16 10:01:38;;;;;;;7.30;2.45;;;22.10;99.90;;;;;;5095238;28;20172;-64
2023/07/16 10:04:15;;;;;;;9.45;2.78;;;22.20;99.90;;;;;;5079321;28;20230;-64
2023/07/16 10:06:58;;;;;;;5.35;2.20;;;22.20;99.90;;;;;;5078147;28;20044;-64
2023/07/16 10:09:36;;;;;;;7.53;2.67;;;22.30;99.90;;;;;;5061409;28;20123;-64
2023/07/16 10:12:16;;;;;;;5.55;2.28;;;22.20;99.90;;;;;;5079512;28;20066;-64
2023/07/16 10:14:46;;;;;;;6.18;2.70;;;22.10;99.90;;;;;;5094978;28;20554;-64
2023/07/16 10:17:15;;;;;;;4.90;2.22;;;22.30;99.90;;;;;;5080013;28;20032;-64
2023/07/16 10:20:16;;;;;;;7.13;2.45;;;22.70;99.90;;;;;;5077891;28;20055;-63
2023/07/16 10:22:46;;;;;;;6.63;2.03;;;22.70;99.90;;;;;;5078807;28;20044;-65
2023/07/16 10:25:17;;;;;;;6.30;2.50;;;22.40;99.90;;;;;;5078509;28;20048;-64
2023/07/16 10:27:45;;;;;;;5.65;2.60;;;22.20;99.90;;;;;;5062165;28;20087;-65
2023/07/16 10:30:11;;;;;;;6.50;2.47;;;22.60;99.90;;;;;;5061327;28;20490;-65
2023/07/16 10:32:38;;;;;;;7.65;2.05;;;23.20;99.90;;;;;;5078119;28;20048;-64
2023/07/16 10:35:05;;;;;;;5.75;1.83;;;23.40;99.90;;;;;;5077830;28;20051;-64
2023/07/16 10:37:32;;;;;;;7.22;2.50;;;22.90;99.90;;;;;;5095904;28;20393;-64
2023/07/16 10:39:59;;;;;;;5.93;2.30;;;22.60;99.90;;;;;;5077466;28;20052;-64
2023/07/16 10:42:27;;;;;;;7.18;1.92;;;22.20;99.90;;;;;;5077499;28;20101;-65
2023/07/16 10:44:59;;;;;;;4.38;2.00;;;22.00;99.90;;;;;;5094637;28;20043;-64
2023/07/16 10:47:32;;;;;;;6.60;2.30;;;21.80;99.90;;;;;;5063383;28;20075;-65
2023/07/16 10:50:00;;;;;;;6.45;2.50;;;22.10;99.90;;;;;;5065726;28;20044;-64
2023/07/16 10:52:26;;;;;;;6.55;2.40;;;22.50;99.90;;;;;;5081881;28;20528;-64
2023/07/16 10:54:57;;;;;;;6.45;2.40;;;22.90;99.90;;;;;;5098506;28;20047;-66
2023/07/16 10:57:27;;;;;;;6.63;2.45;;;23.40;99.90;;;;;;5065151;28;20097;-65
2023/07/16 10:59:54;;;;;;;6.90;2.78;;;23.00;99.90;;;;;;5098773;28;20243;-64
2023/07/16 11:02:22;;;;;;;9.02;2.35;;;22.80;99.90;;;;;;5099179;28;20470;-65
2023/07/16 11:04:48;;;;;;;6.72;2.15;;;22.20;99.90;;;;;;5097941;28;20119;-65
2023/07/16 11:07:15;;;;;;;6.82;2.40;;;21.90;99.90;;;;;;5081263;28;20031;-64
2023/07/16 11:09:45;;;;;;;6.95;2.20;;;21.60;99.90;;;;;;5098668;28;20074;-64
2023/07/16 11:12:15;;;;;;;6.88;2.95;;;21.30;99.90;;;;;;5082685;28;20105;-64
2023/07/16 11:14:46;;;;;;;6.15;2.22;;;21.20;99.90;;;;;;5064511;28;20032;-64
2023/07/16 11:17:14;;;;;;;4.97;2.47;;;21.40;99.90;;;;;;5080561;28;20557;-64
2023/07/16 11:19:42;;;;;;;5.35;2.70;;;22.00;99.90;;;;;;5063748;28;20055;-64
2023/07/16 11:22:09;;;;;;;6.65;2.70;;;22.30;99.90;;;;;;5047786;28;20062;-64
2023/07/16 11:24:51;;;;;;;5.78;2.50;;;22.40;99.90;;;;;;5080795;28;20051;-65
2023/07/16 11:27:17;;;;;;;5.45;2.10;;;22.80;99.90;;;;;;5063914;28;20501;-64
2023/07/16 11:29:54;;;;;;;8.52;2.55;;;22.90;99.90;;;;;;5080657;28;20246;-64
2023/07/16 11:32:36;;;;;;;5.30;2.55;;;23.00;99.90;;;;;;5080358;28;20055;-64
2023/07/16 11:35:04;;;;;;;6.05;2.72;;;22.80;99.90;;;;;;5080290;28;20036;-63
2023/07/16 11:37:31;;;;;;;6.22;2.20;;;22.80;99.90;;;;;;5080362;28;20520;-65
2023/07/16 11:39:59;;;;;;;4.45;1.80;;;22.60;99.90;;;;;;5080469;28;20082;-64
2023/07/16 11:42:29;;;;;;;5.03;2.00;;;22.60;99.90;;;;;;5063494;28;20113;-63
2023/07/16 11:44:55;;;;;;;10.05;2.42;;;22.50;99.90;;;;;;5064258;28;20490;-64
2023/07/16 11:47:21;;;;;;;8.27;2.72;;;22.40;99.90;;;;;;5097421;28;20040;-64
2023/07/16 11:49:48;;;;;;;6.03;2.28;;;22.00;99.90;;;;;;5080460;28;20394;-63
2023/07/16 11:52:14;;;;;;;4.95;2.30;;;21.80;99.90;;;;;;5080213;28;20241;-65
2023/07/16 11:54:40;;;;;;;6.30;2.50;;;21.70;99.90;;;;;;5063695;28;20050;-64
2023/07/16 11:57:06;;;;;;;8.23;2.20;;;21.50;99.90;;;;;;5079644;28;20513;-64
2023/07/16 11:59:32;;;;;;;5.82;2.55;;;21.40;99.90;;;;;;5080785;28;20744;-64
2023/07/16 12:01:59;;;;;;;4.82;1.98;;;21.40;99.90;;;;;;5063436;28;20044;-64
2023/07/16 12:04:25;;;;;;;4.00;2.28;;;21.50;99.90;;;;;;5063497;28;20389;-64
2023/07/16 12:06:51;;;;;;;5.32;1.90;;;22.20;99.90;;;;;;5080144;28;20344;-64
2023/07/16 12:09:16;;;;;;;6.00;2.10;;;22.30;99.90;;;;;;5079620;28;20303;-64
2023/07/16 12:11:43;;;;;;;6.13;2.08;;;22.20;99.90;;;;;;5079918;28;20126;-63
2023/07/16 12:14:08;;;;;;;6.28;1.63;;;22.10;99.90;;;;;;5063366;28;20445;-64
2023/07/16 12:16:34;;;;;;;5.70;2.20;;;21.80;99.90;;;;;;5063036;28;20060;-64
2023/07/16 12:19:00;;;;;;;5.30;2.28;;;21.40;99.90;;;;;;5062663;28;20040;-64
2023/07/16 12:21:25;;;;;;;8.15;2.53;;;21.10;99.90;;;;;;5079651;28;20139;-65
2023/07/16 12:23:51;;;;;;;4.35;2.25;;;21.00;99.90;;;;;;5063223;28;20040;-64
2023/07/16 12:26:17;;;;;;;8.50;2.38;;;21.00;99.90;;;;;;5079297;28;20593;-64
2023/07/16 12:28:42;;;;;;;6.35;2.60;;;21.10;99.90;;;;;;5079636;28;20388;-64
2023/07/16 12:31:08;;;;;;;7.55;2.72;;;21.10;99.90;;;;;;5063058;28;20040;-64
2023/07/16 12:33:34;;;;;;;6.00;2.63;;;21.40;99.90;;;;;;5062318;28;20097;-65
2023/07/16 12:35:59;;;;;;;4.88;2.50;;;21.50;99.90;;;;;;5095972;28;20036;-63
2023/07/16 12:38:25;;;;;;;6.63;2.65;;;21.60;99.90;;;;;;5080484;28;20441;-64
2023/07/16 12:40:51;;;;;;;4.45;2.92;;;22.00;99.90;;;;;;5062061;28;20356;-64
2023/07/16 12:43:16;;;;;;;7.80;3.05;;;22.10;99.90;;;;;;5079026;28;20043;-64
2023/07/16 12:45:42;;;;;;;5.63;3.03;;;21.80;99.90;;;;;;5079528;28;20062;-64